createdAt,value
2022-08-12T00:02:44.527Z,46.01
2022-08-12T00:05:32.219Z,45.75
2022-08-12T00:08:17.589Z,45.76
2022-08-12T00:11:17.499Z,43.92
2022-08-12T00:14:02.753Z,43.60
2022-08-12T00:16:48.896Z,43.60
2022-08-12T00:19:34.576Z,44.76
2022-08-12T00:22:21.171Z,44.94
2022-08-12T00:25:06.489Z,45.52
2022-08-12T00:27:51.709Z,46.54
2022-08-12T00:30:37.446Z,47.23
2022-08-12T00:33:23.157Z,46.91
2022-08-12T00:36:34.985Z,47.81
2022-08-12T00:39:21.804Z,47.68
2022-08-12T00:42:08.640Z,47.82
2022-08-12T00:44:36.693Z,48.70
2022-08-12T00:47:06.670Z,48.59
2022-08-12T00:49:37.603Z,48.77
2022-08-12T00:52:12.781Z,46.71
2022-08-12T00:54:44.575Z,46.92
2022-08-12T00:57:15.281Z,45.75
2022-08-12T00:59:47.124Z,45.84
2022-08-12T01:02:23.336Z,46.67
2022-08-12T01:05:12.141Z,45.97
2022-08-12T01:07:59.436Z,45.24
2022-08-12T01:11:00.898Z,45.60
2022-08-12T01:13:30.451Z,44.93
2022-08-12T01:16:00.116Z,45.25
2022-08-12T01:18:30.154Z,45.13
2022-08-12T01:21:11.825Z,45.45
2022-08-12T01:23:50.222Z,45.56
2022-08-12T01:26:23.264Z,45.92
2022-08-12T01:28:53.855Z,45.19
2022-08-12T01:31:24.099Z,44.83
2022-08-12T01:34:03.426Z,44.61
2022-08-12T01:36:36.366Z,45.24
2022-08-12T01:39:05.641Z,45.15
2022-08-12T01:41:41.063Z,45.57
2022-08-12T01:44:10.437Z,44.91
2022-08-12T01:46:53.083Z,45.71
2022-08-12T01:49:46.179Z,45.24
2022-08-12T01:52:25.129Z,45.80
2022-08-12T01:54:54.232Z,45.62
2022-08-12T01:57:58.228Z,45.83
2022-08-12T02:00:19.034Z,46.89
2022-08-12T02:02:54.312Z,47.27
2022-08-12T02:05:49.480Z,47.95
2022-08-12T02:08:52.112Z,47.83
2022-08-12T02:11:24.447Z,47.28
2022-08-12T02:14:32.143Z,47.46
2022-08-12T02:17:18.270Z,47.56
2022-08-12T02:20:04.333Z,48.12
2022-08-12T02:22:38.903Z,48.74
2022-08-12T02:25:10.702Z,48.91
2022-08-12T02:27:41.071Z,48.68
2022-08-12T02:30:13.160Z,49.67
2022-08-12T02:32:43.335Z,50.14
2022-08-12T02:35:14.954Z,50.04
2022-08-12T02:37:45.439Z,50.21
2022-08-12T02:40:15.156Z,50.35
2022-08-12T02:42:51.175Z,50.94
2022-08-12T02:45:29.328Z,50.75
2022-08-12T02:48:02.127Z,50.79
2022-08-12T02:50:34.957Z,50.99
2022-08-12T02:53:04.110Z,51.53
2022-08-12T02:55:36.099Z,51.51
2022-08-12T02:58:12.366Z,52.02
2022-08-12T03:00:44.916Z,51.93
2022-08-12T03:03:15.150Z,52.35
2022-08-12T03:05:50.801Z,52.42
2022-08-12T03:08:31.400Z,52.35
2022-08-12T03:11:11.886Z,52.81
2022-08-12T03:13:46.878Z,53.22
2022-08-12T03:16:16.307Z,52.87
2022-08-12T03:18:46.040Z,52.75
2022-08-12T03:21:52.330Z,52.33
2022-08-12T03:24:08.918Z,52.70
2022-08-12T03:26:37.860Z,52.83
2022-08-12T03:29:07.646Z,53.55
2022-08-12T03:31:36.992Z,53.39
2022-08-12T03:34:08.164Z,53.94
2022-08-12T03:36:38.610Z,53.96
2022-08-12T03:39:23.851Z,54.26
2022-08-12T03:42:17.302Z,54.12
2022-08-12T03:45:11.440Z,54.69
2022-08-12T03:48:04.909Z,54.84
2022-08-12T03:50:50.742Z,55.01
2022-08-12T03:53:43.984Z,55.22
2022-08-12T03:56:29.665Z,55.53
2022-08-12T03:59:17.478Z,54.76
2022-08-12T04:01:52.482Z,55.25
2022-08-12T04:04:23.482Z,55.45
2022-08-12T04:06:51.970Z,55.34
2022-08-12T04:09:22.285Z,55.37
2022-08-12T04:12:08.832Z,55.54
2022-08-12T04:14:37.728Z,55.73
2022-08-12T04:17:06.015Z,55.83
2022-08-12T04:19:35.520Z,55.96
2022-08-12T04:22:03.922Z,56.05
2022-08-12T04:24:34.729Z,56.35
2022-08-12T04:27:05.092Z,56.47
2022-08-12T04:30:29.476Z,56.34
2022-08-12T04:32:22.235Z,56.70
2022-08-12T04:34:51.968Z,56.80
2022-08-12T04:37:20.026Z,56.71
2022-08-12T04:39:49.907Z,56.39
2022-08-12T04:42:20.154Z,56.36
2022-08-12T04:44:48.419Z,56.49
2022-08-12T04:47:17.831Z,56.45
2022-08-12T04:49:49.226Z,56.66
2022-08-12T04:52:19.601Z,56.78
2022-08-12T04:54:49.061Z,56.90
2022-08-12T04:57:16.914Z,57.32
2022-08-12T04:59:48.001Z,57.30
2022-08-12T05:02:20.519Z,57.24
2022-08-12T05:04:50.785Z,57.00
2022-08-12T05:07:20.097Z,56.67
2022-08-12T05:10:00.362Z,56.58
2022-08-12T05:12:37.539Z,56.35
2022-08-12T05:15:19.783Z,56.05
2022-08-12T05:17:55.570Z,55.86
2022-08-12T05:20:26.143Z,55.95
2022-08-12T05:23:12.504Z,56.24
2022-08-12T05:25:43.284Z,56.10
2022-08-12T05:28:13.023Z,56.16
2022-08-12T05:30:42.714Z,56.03
2022-08-12T05:33:12.742Z,55.64
2022-08-12T05:35:43.128Z,55.66
2022-08-12T05:38:31.756Z,55.41
2022-08-12T05:41:00.471Z,55.01
2022-08-12T05:43:28.769Z,55.00
2022-08-12T05:45:56.883Z,54.71
2022-08-12T05:48:24.716Z,54.62
2022-08-12T05:50:53.654Z,54.36
2022-08-12T05:53:23.863Z,54.70
2022-08-12T05:55:53.196Z,54.40
2022-08-12T05:58:21.466Z,54.33
2022-08-12T06:00:49.401Z,54.42
2022-08-12T06:03:19.666Z,54.04
2022-08-12T06:05:55.377Z,53.78
2022-08-12T06:08:26.964Z,54.06
2022-08-12T06:10:57.110Z,54.15
2022-08-12T06:13:27.912Z,53.75
2022-08-12T06:15:56.947Z,53.81
2022-08-12T06:18:29.610Z,52.78
2022-08-12T06:21:01.516Z,52.32
2022-08-12T06:23:31.089Z,51.80
2022-08-12T06:25:59.890Z,50.95
2022-08-12T06:28:28.107Z,50.66
2022-08-12T06:31:24.276Z,50.55
2022-08-12T06:34:00.382Z,49.93
2022-08-12T06:36:33.742Z,49.65
2022-08-12T06:39:03.167Z,49.63
2022-08-12T06:42:02.499Z,48.48
2022-08-12T06:44:37.102Z,48.74
2022-08-12T06:47:05.131Z,47.96
2022-08-12T06:49:36.854Z,47.56
2022-08-12T06:52:07.388Z,46.45
2022-08-12T06:54:36.776Z,46.20
2022-08-12T06:58:06.140Z,45.84
2022-08-12T06:59:52.861Z,46.14
2022-08-12T07:02:22.864Z,45.42
2022-08-12T07:04:52.627Z,45.00
2022-08-12T07:07:21.290Z,44.26
2022-08-12T07:10:01.226Z,44.26
2022-08-12T07:12:35.117Z,43.14
2022-08-12T07:15:03.112Z,43.05
2022-08-12T07:17:36.225Z,42.07
2022-08-12T07:20:05.765Z,41.97
2022-08-12T07:22:34.593Z,41.73
2022-08-12T07:25:21.563Z,41.63
2022-08-12T07:27:54.522Z,41.16
2022-08-12T07:30:23.031Z,40.41
2022-08-12T07:32:51.652Z,40.19
2022-08-12T07:35:20.362Z,40.08
2022-08-12T07:37:50.440Z,40.28
2022-08-12T07:40:20.728Z,39.22
2022-08-12T07:42:48.746Z,39.04
2022-08-12T07:45:16.830Z,38.93
2022-08-12T07:47:45.083Z,39.27
2022-08-12T07:50:13.981Z,38.22
2022-08-12T07:52:44.639Z,38.07
2022-08-12T07:55:13.358Z,37.74
2022-08-12T07:57:53.326Z,37.93
2022-08-12T08:00:21.745Z,38.11
2022-08-12T08:02:50.427Z,37.76
2022-08-12T08:05:19.640Z,37.81
2022-08-12T08:07:48.286Z,37.17
2022-08-12T08:10:16.709Z,38.14
2022-08-12T08:12:57.601Z,37.31
2022-08-12T08:16:01.057Z,37.17
2022-08-12T08:18:27.648Z,37.02
2022-08-12T08:20:57.621Z,37.49
2022-08-12T08:23:55.803Z,37.35
2022-08-12T08:26:26.525Z,37.29
2022-08-12T08:28:54.438Z,37.04
2022-08-12T08:31:23.720Z,36.00
2022-08-12T08:34:04.780Z,35.98
2022-08-12T08:36:41.708Z,35.36
2022-08-12T08:39:12.682Z,35.69
2022-08-12T08:42:15.751Z,35.17
2022-08-12T08:44:46.600Z,35.24
2022-08-12T08:47:20.679Z,34.61
2022-08-12T08:49:48.855Z,34.11
2022-08-12T08:52:39.625Z,34.38
2022-08-12T08:55:05.416Z,34.12
2022-08-12T08:57:43.696Z,33.60
2022-08-12T09:00:16.989Z,33.46
2022-08-12T09:02:49.539Z,33.61
2022-08-12T09:05:27.887Z,34.13
2022-08-12T09:08:14.090Z,33.28
2022-08-12T09:16:23.272Z,32.46
2022-08-12T09:24:30.749Z,32.10
2022-08-12T09:27:00.081Z,31.93
2022-08-12T09:30:10.971Z,32.07
2022-08-12T09:32:57.038Z,32.40
2022-08-12T09:35:22.240Z,31.89
2022-08-12T09:37:58.925Z,31.85
2022-08-12T09:40:55.752Z,32.12
2022-08-12T09:43:36.283Z,32.50
2022-08-12T09:46:06.781Z,32.59
2022-08-12T09:48:56.590Z,32.24
2022-08-12T09:51:37.721Z,32.19
2022-08-12T09:54:32.813Z,32.26
2022-08-12T09:58:07.119Z,32.07
2022-08-12T10:00:15.153Z,32.06
2022-08-12T10:02:53.413Z,31.97
2022-08-12T10:05:22.795Z,32.32
2022-08-12T10:08:13.616Z,31.71
2022-08-12T10:10:59.804Z,31.40
2022-08-12T10:13:43.099Z,31.75
2022-08-12T10:16:21.917Z,32.11
2022-08-12T10:18:53.615Z,32.50
2022-08-12T10:21:24.177Z,31.71
2022-08-12T10:24:08.548Z,31.35
2022-08-12T10:26:55.644Z,31.47
2022-08-12T10:30:03.067Z,31.07
2022-08-12T10:32:43.172Z,32.07
2022-08-12T10:35:16.372Z,31.70
2022-08-12T10:38:35.920Z,31.66
2022-08-12T10:40:55.543Z,32.15
2022-08-12T10:43:56.033Z,31.77
2022-08-12T10:46:30.686Z,31.55
2022-08-12T10:49:06.229Z,31.83
2022-08-12T10:52:33.293Z,31.33
2022-08-12T10:54:40.649Z,31.47
2022-08-12T10:57:18.339Z,31.03
2022-08-12T11:00:30.400Z,31.19
2022-08-12T11:04:28.360Z,30.87
2022-08-12T11:07:10.117Z,31.28
2022-08-12T11:08:38.825Z,30.06
2022-08-12T11:11:13.975Z,30.19
2022-08-12T11:13:48.986Z,29.91
2022-08-12T11:16:22.492Z,29.89
2022-08-12T11:18:55.057Z,30.39
2022-08-12T11:21:56.349Z,30.47
2022-08-12T11:24:30.562Z,30.05
2022-08-12T11:27:01.798Z,29.85
2022-08-12T11:30:02.183Z,30.23
2022-08-12T11:32:26.386Z,30.20
2022-08-12T11:34:55.195Z,30.20
2022-08-12T11:37:25.436Z,29.68
2022-08-12T11:42:35.726Z,29.33
2022-08-12T11:45:06.222Z,29.48
2022-08-12T11:47:40.233Z,29.63
2022-08-12T11:50:11.829Z,29.75
2022-08-12T11:52:55.434Z,29.74
2022-08-12T11:55:25.042Z,29.71
2022-08-12T11:58:19.825Z,29.58
2022-08-12T12:03:43.769Z,28.45
2022-08-12T12:06:16.759Z,28.99
2022-08-12T12:08:50.944Z,28.80
2022-08-12T12:11:20.969Z,28.36
2022-08-12T12:14:06.848Z,29.18
2022-08-12T12:16:39.953Z,28.89
2022-08-12T12:19:10.581Z,28.96
2022-08-12T12:21:47.393Z,28.58
2022-08-12T12:24:21.090Z,29.00
2022-08-12T12:27:00.562Z,28.25
2022-08-12T12:30:18.970Z,28.77
2022-08-12T12:32:19.371Z,29.14
2022-08-12T12:35:17.774Z,28.68
2022-08-12T12:38:05.328Z,28.87
2022-08-12T12:40:43.676Z,28.70
2022-08-12T12:43:13.763Z,28.31
2022-08-12T12:45:44.420Z,28.30
2022-08-12T12:48:18.348Z,28.54
2022-08-12T12:50:51.509Z,28.42
2022-08-12T12:54:06.839Z,28.39
2022-08-12T12:56:15.669Z,28.63
2022-08-12T12:58:43.996Z,28.23
2022-08-12T13:01:26.908Z,28.57
2022-08-12T13:04:02.400Z,28.46
2022-08-12T13:06:32.019Z,29.19
2022-08-12T13:09:03.010Z,28.89
2022-08-12T13:11:38.990Z,28.49
2022-08-12T13:14:29.449Z,28.18
2022-08-12T13:17:02.309Z,27.84
2022-08-12T13:19:46.699Z,28.14
2022-08-12T13:22:18.525Z,27.76
2022-08-12T13:24:55.106Z,27.90
2022-08-12T13:27:35.737Z,27.19
2022-08-12T13:30:10.937Z,28.10
2022-08-12T13:32:40.943Z,28.44
2022-08-12T13:35:20.328Z,28.96
2022-08-12T13:38:02.415Z,28.18
2022-08-12T13:40:32.690Z,28.32
2022-08-12T13:43:01.997Z,27.71
2022-08-12T13:45:33.058Z,28.20
2022-08-12T13:48:02.816Z,27.78
2022-08-12T13:50:36.200Z,28.10
2022-08-12T13:53:23.746Z,28.40
2022-08-12T13:56:01.427Z,28.25
2022-08-12T13:58:34.633Z,28.73
2022-08-12T14:01:05.885Z,28.17
2022-08-12T14:03:50.878Z,28.11
2022-08-12T14:06:26.004Z,28.03
2022-08-12T14:08:58.491Z,28.19
2022-08-12T14:11:27.838Z,28.05
2022-08-12T14:14:05.797Z,27.94
2022-08-12T14:16:49.035Z,28.06
2022-08-12T14:19:24.125Z,28.15
2022-08-12T14:22:01.634Z,28.00
2022-08-12T14:24:35.614Z,28.21
2022-08-12T14:27:08.853Z,27.99
2022-08-12T14:30:04.080Z,27.54
2022-08-12T14:32:35.376Z,28.02
2022-08-12T14:35:08.954Z,27.82
2022-08-12T14:37:56.604Z,27.59
2022-08-12T14:40:28.451Z,27.88
2022-08-12T14:42:58.239Z,27.61
2022-08-12T14:45:44.980Z,27.23
2022-08-12T14:48:15.903Z,27.39
2022-08-12T14:51:09.679Z,27.67
2022-08-12T14:59:57.217Z,27.54
2022-08-12T15:02:20.390Z,27.22
2022-08-12T15:04:52.304Z,26.22
2022-08-12T15:07:33.626Z,26.54
2022-08-12T15:10:10.823Z,26.33
2022-08-12T15:12:40.874Z,27.01
2022-08-12T15:15:10.546Z,26.86
2022-08-12T15:17:39.815Z,26.87
2022-08-12T15:20:32.299Z,26.43
2022-08-12T15:22:58.022Z,25.99
2022-08-12T15:25:27.861Z,26.15
2022-08-12T15:28:04.437Z,26.17
2022-08-12T15:30:37.130Z,26.66
2022-08-12T15:33:12.954Z,25.95
2022-08-12T15:35:52.166Z,26.54
2022-08-12T15:38:24.566Z,26.31
2022-08-12T15:40:56.446Z,26.54
2022-08-12T15:44:15.780Z,26.32
2022-08-12T15:46:16.775Z,26.89
2022-08-12T15:48:46.953Z,26.85
2022-08-12T15:51:58.854Z,26.96
2022-08-12T15:54:33.668Z,27.13
2022-08-12T15:57:08.007Z,27.18
2022-08-12T16:00:03.911Z,27.20
2022-08-12T16:02:27.091Z,27.66
2022-08-12T16:04:57.308Z,27.51
2022-08-12T16:07:29.862Z,27.05
2022-08-12T16:10:05.736Z,27.68
2022-08-12T16:12:43.348Z,27.56
2022-08-12T16:15:24.809Z,27.44
2022-08-12T16:18:18.869Z,27.39
2022-08-12T16:20:46.750Z,27.10
2022-08-12T16:23:36.114Z,27.07
2022-08-12T16:26:14.855Z,27.96
2022-08-12T16:28:47.249Z,27.43
2022-08-12T16:31:23.599Z,27.33
2022-08-12T16:33:59.487Z,27.27
2022-08-12T16:36:30.076Z,27.41
2022-08-12T16:39:01.703Z,26.92
2022-08-12T16:41:38.040Z,27.26
2022-08-12T16:44:09.813Z,26.81
2022-08-12T16:46:38.688Z,27.46
2022-08-12T16:49:13.513Z,27.23
2022-08-12T16:51:46.850Z,27.24
2022-08-12T16:54:17.122Z,27.39
2022-08-12T16:56:50.941Z,27.21
2022-08-12T16:59:31.156Z,26.74
2022-08-12T17:02:31.530Z,26.99
2022-08-12T17:05:03.580Z,27.02
2022-08-12T17:07:43.222Z,27.22
2022-08-12T17:10:18.362Z,27.72
2022-08-12T17:13:02.154Z,27.98
2022-08-12T17:15:57.837Z,27.92
2022-08-12T17:18:43.568Z,27.59
2022-08-12T17:21:40.845Z,28.04
2022-08-12T17:24:15.290Z,28.38
2022-08-12T17:26:49.159Z,28.49
2022-08-12T17:29:24.263Z,28.48
2022-08-12T17:32:10.074Z,28.26
2022-08-12T17:34:55.925Z,28.74
2022-08-12T17:37:23.860Z,28.53
2022-08-12T17:40:15.359Z,28.72
2022-08-12T17:42:40.568Z,29.06
2022-08-12T17:45:17.748Z,29.21
2022-08-12T17:48:00.224Z,29.18
2022-08-12T17:50:30.123Z,29.32
2022-08-12T17:53:02.849Z,29.53
2022-08-12T17:55:43.117Z,29.63
2022-08-12T17:58:17.160Z,29.41
2022-08-12T18:00:47.117Z,29.41
2022-08-12T18:04:05.023Z,29.40
2022-08-12T18:06:13.744Z,29.49
2022-08-12T18:08:53.558Z,29.54
2022-08-12T18:12:05.548Z,29.71
2022-08-12T18:14:30.077Z,29.83
2022-08-12T18:17:00.472Z,29.73
2022-08-12T18:19:48.591Z,29.89
2022-08-12T18:22:21.925Z,29.81
2022-08-12T18:25:03.799Z,29.80
2022-08-12T18:27:43.786Z,29.81
2022-08-12T18:30:20.866Z,30.27
2022-08-12T18:33:04.729Z,29.95
2022-08-12T18:35:46.529Z,29.81
2022-08-12T18:38:21.792Z,30.12
2022-08-12T18:41:09.680Z,30.08
2022-08-12T18:43:59.029Z,30.25
2022-08-12T18:46:46.915Z,30.39
2022-08-12T18:49:19.370Z,30.30
2022-08-12T18:52:02.667Z,31.22
2022-08-12T18:54:34.760Z,31.03
2022-08-12T18:57:16.707Z,31.57
2022-08-12T19:00:00.998Z,31.99
2022-08-12T19:03:38.754Z,32.70
2022-08-12T19:06:04.830Z,33.10
2022-08-12T19:08:36.832Z,33.15
2022-08-12T19:11:25.007Z,33.60
2022-08-12T19:14:12.346Z,33.99
2022-08-12T19:16:43.796Z,34.08
2022-08-12T19:19:18.305Z,34.60
2022-08-12T19:21:49.383Z,34.27
2022-08-12T19:24:44.247Z,34.65
2022-08-12T19:27:15.763Z,35.05
2022-08-12T19:29:44.409Z,34.71
2022-08-12T19:32:14.632Z,35.09
2022-08-12T19:36:06.719Z,34.45
2022-08-12T19:38:06.536Z,34.41
2022-08-12T19:40:33.613Z,34.47
2022-08-12T19:43:19.442Z,34.64
2022-08-12T19:45:50.390Z,34.55
2022-08-12T19:48:20.843Z,34.29
2022-08-12T19:50:52.087Z,33.43
2022-08-12T19:53:22.889Z,33.25
2022-08-12T19:55:54.675Z,32.99
2022-08-12T19:58:24.884Z,33.37
2022-08-12T20:00:54.791Z,33.43
2022-08-12T20:03:40.026Z,33.80
2022-08-12T20:06:15.542Z,33.85
2022-08-12T20:08:48.628Z,34.20
2022-08-12T20:12:12.720Z,34.40
2022-08-12T20:14:09.206Z,34.55
2022-08-12T20:16:57.886Z,34.73
2022-08-12T20:19:53.030Z,35.42
2022-08-12T20:22:24.292Z,35.19
2022-08-12T20:25:00.922Z,35.88
2022-08-12T20:28:02.771Z,36.02
2022-08-12T20:30:35.184Z,35.64
2022-08-12T20:33:18.433Z,35.98
2022-08-12T20:36:12.889Z,35.96
2022-08-12T20:38:38.277Z,36.20
2022-08-12T20:41:17.335Z,36.20
2022-08-12T20:43:50.504Z,36.43
2022-08-12T20:46:20.435Z,36.45
2022-08-12T20:48:54.992Z,36.55
2022-08-12T20:51:27.716Z,36.78
2022-08-12T20:53:58.758Z,36.98
2022-08-12T20:56:34.687Z,36.76
2022-08-12T20:59:06.738Z,37.07
2022-08-12T21:01:46.309Z,36.70
2022-08-12T21:04:35.548Z,37.20
2022-08-12T21:07:09.666Z,37.26
2022-08-12T21:09:42.442Z,37.27
2022-08-12T21:12:31.297Z,37.49
2022-08-12T21:15:24.154Z,37.91
2022-08-12T21:18:09.652Z,37.80
2022-08-12T21:20:52.685Z,37.65
2022-08-12T21:23:22.770Z,38.91
2022-08-12T21:25:52.600Z,37.98
2022-08-12T21:28:22.317Z,38.56
2022-08-12T21:32:37.939Z,38.43
2022-08-12T21:33:58.706Z,38.45
2022-08-12T21:36:35.464Z,38.73
2022-08-12T21:39:20.531Z,38.74
2022-08-12T21:41:51.895Z,39.46
2022-08-12T21:44:24.616Z,39.56
2022-08-12T21:47:21.518Z,39.02
2022-08-12T21:50:02.197Z,39.45
2022-08-12T21:52:35.609Z,39.16
2022-08-12T21:55:08.054Z,39.17
2022-08-12T21:57:51.353Z,39.78
2022-08-12T22:00:31.934Z,39.22
2022-08-12T22:04:04.168Z,39.40
2022-08-12T22:06:20.311Z,39.38
2022-08-12T22:09:01.969Z,39.92
2022-08-12T22:11:41.167Z,39.88
2022-08-12T22:14:21.836Z,40.56
2022-08-12T22:16:54.691Z,40.74
2022-08-12T22:19:26.710Z,40.41
2022-08-12T22:21:58.432Z,40.58
2022-08-12T22:24:30.431Z,40.55
2022-08-12T22:26:59.687Z,41.20
2022-08-12T22:30:04.135Z,41.24
2022-08-12T22:32:33.671Z,41.79
2022-08-12T22:35:22.215Z,41.57
2022-08-12T22:37:53.623Z,41.46
2022-08-12T22:40:23.982Z,41.51
2022-08-12T22:43:15.600Z,41.21
2022-08-12T22:46:01.608Z,41.23
2022-08-12T22:48:30.633Z,41.39
2022-08-12T22:51:00.206Z,41.58
2022-08-12T22:53:36.152Z,41.06
2022-08-12T22:56:07.122Z,40.91
2022-08-12T22:58:41.317Z,41.17
2022-08-12T23:01:13.713Z,41.61
2022-08-12T23:03:53.801Z,41.69
2022-08-12T23:06:25.762Z,41.16
2022-08-12T23:08:55.952Z,41.22
2022-08-12T23:11:25.552Z,41.53
2022-08-12T23:14:04.346Z,42.12
2022-08-12T23:16:34.133Z,42.19
2022-08-12T23:19:09.977Z,41.48
2022-08-12T23:22:06.140Z,41.81
2022-08-12T23:24:53.650Z,42.32
2022-08-12T23:27:44.138Z,42.79
2022-08-12T23:30:25.168Z,43.27
2022-08-12T23:33:00.694Z,43.96
2022-08-12T23:35:53.655Z,43.88
2022-08-12T23:38:30.380Z,44.27
2022-08-12T23:41:00.776Z,44.39
2022-08-12T23:43:39.095Z,44.60
2022-08-12T23:46:09.893Z,45.98
2022-08-12T23:48:38.557Z,46.08
2022-08-12T23:51:23.780Z,46.06
2022-08-12T23:54:00.235Z,46.69
2022-08-12T23:56:33.513Z,46.29
2022-08-12T23:59:02.465Z,46.37
